Water Quality Data from the Intake Channel of the Tracy Fish Collection Facility, Byron, California
Summary of Percentiles by STUDY DAY (_sd)
Water Quality Multiprobe located in Intake Channel of the Tracy Fish Collection Facility, Tracy, California 3748'54" N 12133'30" W
Summaries Based on Period of Record April 1, 2000 through February 15, 2007 <> Measurements at 30-min limits <> 2,512 days, 120,552 observations
Bureau of Reclamation Validated Water Quality Data <> Contact: Doug Craft dcraft@do.usbr.gov 303-445-2182 <> TRACY FISH FACILITY IMPROVEMENT PROGRAM <> http://www.usbr.gov/pmts/tech_services/tracy_research/
Key to Variable Names: VARIABLE_PERCENTILE_SUMMARY - To export this data table to Microsoft Excel: 1. From this browser: File -> Save As -> "your file name.htm" 2. From Excel: Data -> Import External Data -> Import Data -> "your file name.htm"
Variables T_ Channel Water Temperature(T), measured in Degrees Celsius, C
EC_ Electrical Conductivity (EC), measured in microSiemens per centimeter, S/cm
DOpct_ Percent Dissolved Oxygen Saturation in Water (DOpct), measured in percent, %
DO_ Dissolved Oxygen (DO), measured in milligrams per liter, mg/L
pH_ Hydrogen Ion Activity in Water (pH), measured in standard units, s.u.
Eh_ Oxidation-Reduction Potential, Redox, (Eh), measured in millivolts, mV
Turbidity_ Turbidity, measured in Nephelometric Turbidity Units, NTU <> Turbidity values > 195 NTU are beyond probe calibration range, Lower Detection Limit ~ 1 NTU
Percentiles _05th_ 5th Percentile - approximates the lower 95% confidence limit
_16th_ 16th Percentile - approximates the lower 68% confidence limit
_Median_ 50th Percentile - approximates the mean or average
_84th_ 84th Percentile - approximates the upper 68% confidence limit
_95th_ 95th Percentile - approximates the upper 95% confidence limit
Variable Summary Suffixes _dyr Summary by Day of Year
_ww Summary by Week of Year
_mm Summary by Month of Year
_sd Summary by continuous STUDY DAY (since April 1, 2000)
_sw Summary by continuous STUDY WEEK (since April 1, 2000)
_sm Summary by continuous STUDY MONTH (since April 1, 2000)
Study_Day Date T_05th_sd T_16th_sd T_Median_sd T_84th_sd T_95th_sd EC_05th_sd EC_16th_sd EC_Median_sd EC_84th_sd EC_95th_sd DOpct_05th_sd DOpct_16th_sd DOpct_Median_sd DOpct_84th_sd DOpct_95th_sd DO_05th_sd DO_16th_sd DO_Median_sd DO_84th_sd DO_95th_sd pH_05th_sd pH_16th_sd pH_Median_sd pH_84th_sd pH_95th_sd Eh_05th_sd Eh_16th_sd Eh_Median_sd Eh_84th_sd Eh_95th_sd Turbidity_05th_sd Turbidity_16th_sd Turbidity_Median_sd Turbidity_84th_sd Turbidity_95th_sd
1 4/1/2000                                                                      
2 4/2/2000                                                                      
3 4/3/2000 16.9 17.0 17.1 17.2 17.4 267 270 293 393 437 101.5 101.6 102.4 103.1 103.4 9.78 9.80 9.88 9.93 9.95 8.05 8.11 8.22 8.23 8.24 147 148 151 169 195 17.4 20.2 27.2 35.6 46.3
4 4/4/2000 16.8 17.0 17.5 17.7 17.8 292 297 426 465 476 97.9 99.7 103.4 104.4 105.3 9.48 9.58 9.89 9.97 10.04 8.21 8.24 8.28 8.35 8.36 142 144 151 156 157 22.2 24.3 29.8 39.1 48.5
5 4/5/2000 17.0 17.1 17.7 17.9 18.2 280 295 434 492 513 96.9 98.4 102.5 106.0 107.9 9.36 9.44 9.77 10.03 10.18 8.31 8.33 8.38 8.49 8.54 149 153 159 169 173 20.6 22.5 30.8 41.6 48.8
6 4/6/2000 17.1 17.2 17.7 18.0 18.3 283 294 438 533 540 96.2 97.0 103.1 108.1 109.1 9.26 9.33 9.81 10.22 10.28 8.34 8.36 8.45 8.59 8.61 172 173 177 188 189 21.7 24.2 31.4 40.7 52.6
7 4/7/2000 17.3 17.4 17.7 18.4 18.6 272 285 489 550 568 96.7 97.3 101.3 107.6 110.2 9.28 9.33 9.60 10.09 10.31 8.38 8.39 8.47 8.57 8.63 177 180 187 189 194 21.5 25.6 34.0 44.8 54.4
8 4/8/2000 17.5 17.6 18.0 18.4 18.5 263 273 470 587 599 95.8 97.3 99.1 102.8 103.0 9.16 9.24 9.36 9.64 9.73 8.39 8.44 8.49 8.60 8.62 154 169 179 202 205 24.1 30.0 36.9 49.5 67.3
9 4/9/2000 17.0 17.3 17.6 18.1 18.3 264 269 425 588 594 93.5 94.7 97.2 99.3 101.3 9.02 9.09 9.28 9.40 9.54 8.47 8.50 8.53 8.61 8.65 182 204 208 221 224 23.9 29.2 36.1 44.4 56.1
10 4/10/2000 17.2 17.3 17.7 18.2 18.3 262 275 397 610 631 90.7 93.6 96.1 100.2 101.0 7.81 8.93 9.14 9.46 9.52 7.51 8.12 8.49 8.54 8.57 204 214 220 227 234 21.1 28.3 33.0 45.8 52.7
11 4/11/2000 17.6 17.8 18.0 18.9 19.0 258 280 388 592 610 94.9 95.6 98.7 105.1 106.1 9.04 9.10 9.33 9.76 9.84 8.00 8.04 8.09 8.21 8.23 209 214 219 224 228 16.3 23.3 28.2 41.5 49.7
12 4/12/2000 18.3 18.4 18.5 19.0 19.1 252 268 295 549 609 96.1 97.5 99.8 102.1 106.0 9.03 9.16 9.34 9.53 9.80 8.01 8.05 8.09 8.18 8.28 228 231 240 258 264 15.7 20.4 25.1 35.5 40.0
13 4/13/2000 18.4 18.4 18.6 19.0 19.2 244 253 269 312 526 95.4 96.8 99.5 101.1 103.1 8.95 9.07 9.30 9.43 9.57 8.01 8.04 8.14 8.20 8.27 268 269 279 295 298 16.0 18.5 21.9 31.9 40.9
14 4/14/2000 18.1 18.2 18.5 18.6 18.8 240 243 252 310 353 89.6 91.8 96.6 98.5 99.8 8.40 8.61 9.06 9.25 9.37 8.10 8.12 8.16 8.19 8.23 301 302 312 320 322 10.5 11.9 18.9 34.1 39.2
15 4/15/2000 18.2 18.2 18.3 18.5 18.6 262 266 283 348 396 85.4 86.9 89.7 91.7 93.0 8.04 8.18 8.42 8.63 8.73 8.04 8.07 8.11 8.13 8.14 322 330 335 345 347 13.4 15.3 19.2 24.5 30.7
16 4/16/2000 17.3 17.4 17.9 18.1 18.3 271 272 304 434 527 84.5 86.4 87.8 90.0 93.1 7.99 8.19 8.38 8.52 8.78 8.03 8.05 8.08 8.12 8.20 344 347 356 365 368 14.7 16.0 20.1 27.7 30.6
17 4/17/2000 16.7 16.9 17.1 17.2 17.3 271 271 277 373 479 82.9 83.9 87.1 91.6 92.9 8.02 8.11 8.39 8.82 8.96 7.69 7.69 8.07 8.08 8.12 240 266 367 376 377 13.6 14.5 19.0 26.5 30.7
18 4/18/2000 16.4 16.5 16.7 17.1 17.4 272 279 287 461 556 89.9 90.7 92.2 94.3 96.5 8.75 8.86 8.98 9.10 9.26 7.66 7.67 7.69 7.74 7.81 295 299 317 336 344 16.0 16.3 18.3 30.7 35.9
19 4/19/2000 16.6 16.6 16.9 17.6 18.2 284 285 305 520 577 76.8 81.4 88.7 92.7 93.7 7.47 7.86 8.57 9.01 9.04 7.66 7.67 7.69 7.78 7.81 331 337 351 362 371 13.6 15.3 19.4 26.3 36.4
20 4/20/2000 17.0 17.2 17.4 18.1 18.7 282 285 308 477 545 76.6 81.1 85.2 90.8 92.3 7.38 7.78 8.19 8.60 8.72 7.65 7.67 7.70 7.75 7.79 350 366 372 381 385 10.8 12.2 16.7 24.7 30.8
21 4/21/2000 17.6 17.7 17.9 18.4 18.6 291 291 315 468 519 78.7 81.4 85.3 91.9 93.4 7.49 7.75 8.07 8.66 8.79 7.66 7.68 7.70 7.80 7.82 366 371 383 388 390 10.3 11.0 15.9 28.0 28.8
22 4/22/2000 17.3 17.3 17.4 17.9 18.0 292 292 311 436 542 78.9 83.0 88.3 93.1 94.1 7.54 7.95 8.47 8.88 8.96 7.77 7.78 7.82 7.86 7.88 366 375 383 385 387 11.0 11.5 15.8 27.2 31.2
23 4/23/2000 16.7 16.8 17.1 17.9 18.2 301 303 323 514 551 74.2 80.9 88.1 92.0 95.3 7.15 7.83 8.51 8.78 9.11 7.80 7.81 7.85 7.95 8.01 350 361 381 386 388 10.5 11.7 18.0 29.4 31.8
24 4/24/2000 16.9 17.0 17.3 18.0 18.9 320 321 395 531 549 73.8 76.1 82.2 91.5 101.8 7.07 7.33 7.93 8.71 9.47 7.37 7.40 7.83 7.87 7.97 209 239 381 389 392 9.5 11.5 19.0 23.8 27.7
25 4/25/2000 17.3 17.4 17.9 18.7 18.9 346 366 405 421 495 78.8 82.7 86.5 88.8 89.8 7.38 7.78 8.24 8.47 8.52 7.20 7.28 7.45 7.61 7.67 135 188 234 258 266 7.4 7.8 12.6 15.0 18.4
26 4/26/2000 17.9 17.9 18.3 18.7 19.3 431 438 464 487 493 62.3 66.7 77.1 81.6 86.3 5.85 6.25 7.26 7.61 8.12 7.34 7.36 7.47 7.54 7.60 170 187 224 248 311 8.7 10.0 11.7 15.2 16.4
27 4/27/2000 18.3 18.4 18.7 19.0 19.1 376 393 504 537 550 68.9 73.9 82.2 92.8 94.1 6.46 6.92 7.66 8.64 8.79 7.40 7.43 7.54 7.78 7.79 295 313 350 357 367 10.0 10.6 12.0 15.7 26.1
28 4/28/2000 18.1 18.1 18.4 18.7 18.8 355 359 378 522 557 86.7 88.6 91.0 94.2 95.3 8.16 8.32 8.58 8.82 8.89 7.67 7.69 7.75 7.84 7.89 359 361 370 374 377 11.4 12.3 14.4 22.1 25.5
29 4/29/2000 17.8 17.9 18.0 18.6 18.6 373 381 409 542 549 84.5 86.8 88.9 93.0 93.9 8.03 8.23 8.41 8.71 8.78 7.67 7.69 7.76 7.83 7.85 368 371 381 385 388 12.7 13.2 16.0 24.3 26.9
30 4/30/2000 18.0 18.2 18.5 19.0 19.3 372 378 413 501 517 81.7 85.3 87.8 91.6 93.2 7.71 8.00 8.25 8.50 8.61 7.64 7.68 7.77 7.82 7.87 373 380 390 396 398 13.3 13.8 17.6 25.7 28.1
31 5/1/2000 18.6 18.7 18.8 19.2 19.3 342 345 349 400 484 81.6 82.8 85.7 89.2 91.7 7.59 7.68 8.00 8.34 8.54 7.51 7.53 7.73 7.77 7.82 227 231 392 398 403 15.1 16.0 17.4 23.8 35.0
32 5/2/2000 18.7 18.9 19.4 19.8 20.2 337 338 350 419 445 79.4 80.6 82.2 84.0 89.1 7.34 7.45 7.59 7.75 8.06 7.44 7.47 7.49 7.53 7.61 228 238 244 250 254 14.6 17.7 21.9 35.5 43.9
33 5/3/2000 19.2 19.3 19.6 20.0 20.0 338 339 350 429 440 73.9 78.3 81.2 87.0 89.7 6.82 7.21 7.44 7.94 8.16 7.40 7.44 7.51 7.71 7.74 191 198 251 257 261 14.7 16.6 25.6 37.2 42.8
34 5/4/2000 19.4 19.4 19.6 20.0 20.3 341 346 356 429 436 76.7 83.5 85.3 88.2 89.7 7.03 7.67 7.82 8.02 8.14 7.60 7.66 7.72 7.75 7.78 204 211 232 258 262 17.2 18.5 23.7 38.4 41.3
35 5/5/2000 18.9 19.0 19.2 19.6 19.7 348 349 358 422 434 80.7 82.2 84.5 87.1 88.9 7.47 7.62 7.79 8.02 8.20 7.69 7.72 7.77 7.81 7.84 266 274 284 303 305 19.8 22.1 26.5 41.0 43.9
36 5/6/2000 18.1 18.1 18.5 18.7 18.8 347 348 357 421 440 80.2 81.6 83.7 85.2 85.6 7.55 7.66 7.85 7.99 8.03 7.72 7.75 7.78 7.83 7.84 285 303 309 323 334 20.4 22.8 29.7 42.3 48.5
37 5/7/2000 17.7 17.8 18.0 18.2 18.2 356 358 370 442 448 75.3 77.3 79.4 80.6 81.5 7.15 7.34 7.52 7.62 7.69 7.65 7.67 7.74 7.77 7.78 330 338 345 361 364 22.1 23.9 29.0 40.4 45.0
38 5/8/2000 17.7 17.9 18.1 18.8 19.3 363 367 395 454 463 72.8 74.2 77.1 81.4 84.6 6.88 7.06 7.30 7.59 7.80 7.55 7.57 7.65 7.67 7.70 129 172 362 368 369 16.9 20.9 31.4 38.0 44.1
39 5/9/2000 17.8 18.0 18.1 18.6 18.7 372 375 403 471 480 73.4 75.5 77.3 81.6 82.4 6.96 7.12 7.30 7.66 7.78 7.55 7.57 7.62 7.65 7.68 144 160 180 241 257 20.2 23.0 26.7 36.7 40.1
40 5/10/2000 17.5 17.7 18.1 18.4 18.6 376 381 396 461 484 77.4 78.0 79.7 82.6 83.2 7.33 7.39 7.54 7.80 7.90 7.61 7.63 7.67 7.72 7.75 212 223 251 296 312 20.9 23.0 30.3 36.5 41.2
41 5/11/2000 17.1 17.4 17.6 18.4 18.6 394 409 440 481 485 77.2 78.9 81.2 84.8 86.5 7.41 7.53 7.73 8.03 8.11 7.66 7.69 7.72 7.80 7.84 301 305 316 325 345 22.1 23.4 29.6 39.3 44.9
42 5/12/2000 17.2 17.3 17.6 18.2 18.2 412 433 465 480 485 78.0 79.6 83.0 84.8 86.8 7.44 7.66 7.91 8.06 8.17 7.69 7.72 7.75 7.80 7.83 316 326 339 350 355 21.6 24.6 31.8 39.1 48.2
43 5/13/2000 17.5 17.7 18.1 18.9 19.0 368 373 402 464 471 79.0 80.3 81.8 84.5 85.7 7.52 7.61 7.72 7.87 8.00 7.69 7.71 7.78 7.83 7.84 332 342 355 363 367 21.1 22.4 27.1 44.2 50.7
44 5/14/2000 17.7 17.9 18.5 18.7 18.9 368 370 378 441 445 76.5 78.9 81.8 82.9 83.4 7.19 7.43 7.66 7.74 7.78 7.69 7.71 7.79 7.82 7.84 362 368 375 378 381 21.6 24.1 29.9 44.6 48.7
45 5/15/2000 17.6 17.8 18.4 18.5 18.6 361 363 373 415 425 73.1 76.8 77.9 79.4 80.3 6.86 7.24 7.35 7.48 7.53 7.69 7.71 7.78 7.82 7.82 379 381 384 388 391 23.6 25.3 29.7 44.6 47.7
46 5/16/2000 17.4 17.4 18.0 18.3 18.4 356 360 366 412 415 71.3 73.8 75.7 77.2 78.1 6.73 7.05 7.19 7.30 7.35 7.69 7.73 7.80 7.84 7.86 381 383 386 392 393 22.8 24.6 29.4 42.0 48.9
47 5/17/2000 16.9 17.4 17.7 18.1 18.8 358 360 366 413 415 71.9 72.9 78.5 83.0 86.1 6.91 7.00 7.43 7.86 8.04 7.67 7.70 7.76 7.85 7.88 336 375 384 389 392 18.2 22.6 29.5 42.2 46.6
48 5/18/2000 17.6 17.9 18.6 19.1 20.1 344 345 354 403 411 75.6 79.6 82.4 84.0 90.9 7.10 7.45 7.70 7.89 8.25 7.66 7.69 7.77 7.80 7.90 357 360 379 390 393 15.9 17.3 23.4 38.3 46.0
49 5/19/2000 18.8 19.0 19.9 20.2 21.1 344 344 354 414 443 77.4 79.7 82.3 86.1 88.7 7.16 7.26 7.58 7.81 7.92 7.65 7.68 7.75 7.80 7.85 361 375 385 392 397 14.0 17.1 22.5 34.1 39.6
50 5/20/2000 19.8 19.9 20.9 21.4 21.7 341 347 416 467 483 75.2 77.8 79.7 83.6 87.6 6.81 6.92 7.21 7.48 7.78 7.63 7.66 7.70 7.75 7.77 371 380 392 400 404 14.8 18.2 25.6 31.9 36.0
51 5/21/2000 21.0 21.0 22.0 22.7 22.9 349 355 447 496 510 74.6 77.5 82.5 90.2 94.1 6.63 6.89 7.24 7.82 8.16 7.63 7.65 7.72 7.83 7.90 373 378 398 407 410 15.8 16.9 21.2 32.9 36.3
52 5/22/2000 22.1 22.2 22.4 23.6 23.8 342 362 487 503 509 75.5 78.5 83.5 99.0 103.6 6.56 6.76 7.17 8.44 8.83 7.45 7.47 7.70 7.77 7.84 194 323 397 412 414 11.3 13.0 23.9 29.9 35.5
53 5/23/2000 23.1 23.1 23.4 23.9 24.2 347 358 481 502 507 78.3 82.1 89.7 97.5 99.2 6.64 6.97 7.67 8.29 8.44 7.42 7.45 7.59 7.80 7.84 373 386 399 407 412 14.0 15.3 20.6 31.8 38.0
54 5/24/2000 22.9 23.0 23.3 23.8 23.9 341 370 474 480 500 76.5 78.7 87.2 94.0 95.6 6.54 6.71 7.45 8.01 8.18 7.44 7.50 7.66 7.83 7.97 389 394 419 428 432 19.6 21.7 25.5 34.0 37.0
55 5/25/2000 21.5 21.7 22.0 22.4 22.6 456 459 473 486 508 80.7 82.7 87.2 100.7 103.6 7.08 7.23 7.59 8.84 9.08 7.72 7.76 7.90 8.26 8.31 346 356 401 419 424 26.5 27.5 33.5 58.3 63.0
56 5/26/2000 20.7 20.9 21.6 21.7 21.9 395 408 476 487 498 82.9 84.1 88.3 94.8 96.9 7.31 7.44 7.85 8.34 8.53 7.83 7.88 8.01 8.18 8.24 351 356 389 401 409 27.1 31.9 47.1 57.0 62.7
57 5/27/2000 20.8 21.0 21.4 21.9 22.1 362 368 453 482 489 77.7 79.3 82.9 90.0 91.3 6.88 6.98 7.37 7.88 8.02 7.79 7.82 7.89 8.05 8.08 377 383 398 404 407 27.7 30.0 43.9 56.3 60.2
58 5/28/2000 21.3 21.4 21.9 22.2 22.6 359 367 448 477 489 74.5 76.2 77.7 85.9 87.6 6.50 6.61 6.82 7.52 7.66 7.74 7.76 7.79 7.94 7.97 399 402 411 417 420 26.9 29.4 41.6 56.9 60.3
59 5/29/2000 20.9 21.1 21.7 23.0 23.2 325 335 448 484 498 73.7 74.9 77.4 84.0 86.1 6.31 6.48 6.83 7.45 7.62 7.66 7.71 7.81 7.93 8.02 384 394 408 418 423 29.1 34.9 48.4 58.7 63.6
60 5/30/2000 20.5 20.7 21.2 21.9 22.4 321 332 454 518 525 67.5 71.6 78.7 91.1 105.1 5.95 6.31 7.01 8.00 9.39 7.65 7.71 7.86 8.00 8.16 312 334 395 412 423 26.1 38.9 48.1 64.8 75.6
61 5/31/2000 20.4 20.5 21.0 22.0 22.2 322 346 473 519 528 84.6 85.9 93.1 100.8 105.1 7.39 7.54 8.34 9.00 9.41 7.61 7.64 7.84 8.00 8.12 309 319 348 362 368 28.0 35.4 51.0 64.6 71.1
62 6/1/2000 20.8 21.4 22.0 22.6 22.8 319 326 389 512 526 73.1 77.6 85.1 104.0 105.1 6.41 6.75 7.43 9.18 9.33 7.43 7.47 7.59 7.96 8.05 332 338 377 395 399 27.3 30.3 37.5 60.4 65.5
63 6/2/2000 21.4 21.8 22.2 22.5 22.7 317 329 403 511 532 65.4 72.8 81.1 98.1 106.7 5.72 6.36 7.06 8.53 9.26 7.33 7.40 7.54 7.88 8.05 333 351 393 409 418 31.1 34.4 40.5 47.3 57.6
64 6/3/2000 21.4 21.8 22.0 22.7 22.9 317 323 397 522 535 63.2 71.7 78.4 95.2 104.0 5.54 6.26 6.86 8.43 9.10 7.31 7.39 7.51 7.87 8.06 338 357 396 413 422 30.9 34.8 38.6 55.6 68.2
65 6/4/2000 21.5 22.0 22.4 22.8 23.3 312 325 380 515 529 50.5 69.4 77.1 97.9 101.0 4.38 5.97 6.68 8.58 8.83 7.23 7.34 7.46 7.96 8.03 351 359 407 423 427 32.3 36.6 45.7 60.8 69.6
66 6/5/2000 21.0 21.1 21.7 22.1 22.4 296 300 410 515 530 73.9 77.2 84.7 112.9 122.1 6.46 6.75 7.51 10.05 10.84 7.46 7.49 7.63 8.16 8.29 279 293 377 412 416 35.4 40.2 47.5 63.6 69.4
67 6/6/2000 20.7 21.0 21.7 22.2 22.4 283 296 400 515 529 89.4 93.5 101.4 113.6 119.1 7.81 8.20 8.88 10.07 10.48 7.52 7.57 7.81 8.22 8.28 291 305 343 367 370 23.5 29.7 40.5 58.2 64.1
68 6/7/2000 20.7 20.9 21.3 21.7 22.0 306 324 408 496 509 89.3 92.0 97.0 102.8 104.2 7.90 8.11 8.56 9.19 9.32 7.57 7.62 7.77 7.98 8.06 335 343 358 369 372 30.4 33.9 43.1 57.8 65.7
69 6/8/2000 20.5 20.6 21.1 21.5 21.5 294 302 407 481 485 88.4 90.1 91.0 92.4 94.8 7.81 7.97 8.13 8.27 8.52 7.56 7.60 7.67 7.75 7.79 374 375 380 387 390 28.8 32.0 42.2 54.4 64.0
70 6/9/2000 19.8 20.1 20.5 20.8 20.9 286 295 367 481 498 89.9 91.5 95.5 98.3 99.5 8.11 8.27 8.59 8.88 9.01 7.62 7.66 7.74 7.82 7.88 361 365 373 387 391 30.5 34.1 44.7 63.9 71.7
71 6/10/2000 19.6 19.9 20.4 20.8 21.2 275 277 342 480 524 92.7 93.8 97.6 100.2 101.4 8.47 8.55 8.81 8.98 9.12 7.72 7.73 7.76 7.81 7.84 362 366 375 381 383 26.1 29.0 39.4 61.4 67.7
72 6/11/2000 19.8 20.1 20.8 21.2 21.3 282 285 355 505 529 86.3 88.3 92.9 98.2 99.2 7.83 8.03 8.31 8.80 8.89 7.62 7.65 7.69 7.74 7.77 374 378 390 399 401 25.4 29.1 37.3 54.5 65.5
73 6/12/2000 20.6 20.7 21.4 21.8 22.2 278 284 353 478 505 77.0 79.5 87.3 96.6 98.7 6.81 6.99 7.85 8.55 8.72 7.64 7.66 7.70 7.80 7.83 324 342 366 389 394 25.6 27.1 34.8 50.1 57.0
74 6/13/2000 21.5 21.7 22.2 22.9 23.2 280 294 379 485 489 74.9 75.9 81.0 83.0 84.1 6.59 6.70 7.04 7.18 7.30 7.67 7.68 7.74 7.77 7.80 358 365 372 383 384 22.7 25.2 33.2 49.2 53.7
75 6/14/2000 22.7 22.8 23.1 23.9 24.3 273 281 333 483 494 73.2 74.9 80.8 83.6 84.6 6.25 6.43 6.83 7.19 7.26 7.67 7.68 7.75 7.79 7.81 367 373 378 393 395 21.7 24.4 32.0 45.2 55.3
76 6/15/2000 23.7 23.8 24.1 24.8 25.1 272 282 319 467 481 63.1 69.4 78.0 81.7 82.6 5.29 5.77 6.49 6.86 6.95 7.56 7.60 7.71 7.75 7.76 376 383 389 403 409 10.6 21.3 33.5 41.1 44.8
77 6/16/2000 24.4 24.5 24.8 25.1 25.4 260 264 298 440 460 69.5 75.4 80.3 85.1 86.3 5.77 6.25 6.70 7.04 7.12 7.60 7.70 7.78 7.88 7.92 360 363 382 394 410 7.1 14.5 26.3 47.7 55.8
78 6/17/2000 24.4 24.5 24.8 25.1 25.3 254 259 279 430 492 75.1 77.0 81.1 83.2 84.5 6.18 6.36 6.72 6.91 7.04 7.72 7.74 7.83 7.87 7.89 369 370 373 386 391 7.0 14.3 23.8 44.8 53.6
79 6/18/2000 24.0 24.1 24.5 24.7 25.0 256 261 290 473 501 66.5 68.9 73.0 76.5 78.3 5.53 5.70 6.09 6.40 6.54 7.73 7.74 7.81 7.84 7.85 377 381 387 401 405 4.3 16.1 28.9 53.0 60.4
80 6/19/2000 23.8 23.9 24.5 24.9 25.3 254 257 285 501 525 66.6 68.0 78.0 86.5 87.4 5.59 5.74 6.46 7.20 7.25 7.67 7.72 7.78 7.82 7.83 343 375 382 400 405 2.6 14.9 31.8 39.5 54.1
81 6/20/2000 24.0 24.1 24.5 25.3 25.6 254 256 279 500 559 69.3 79.0 84.5 87.1 88.4 5.71 6.47 7.09 7.27 7.36 7.62 7.71 7.77 7.80 7.83 374 376 382 391 401 2.7 4.3 15.7 30.3 34.0
82 6/21/2000 24.3 24.3 24.6 25.5 26.0 249 254 269 521 565 75.1 77.2 83.4 85.6 88.1 6.13 6.31 6.96 7.13 7.29 7.68 7.72 7.76 7.81 7.82 373 377 381 385 387 5.6 7.3 17.8 28.8 32.7
83 6/22/2000 24.4 24.5 24.7 25.3 25.6 250 251 262 468 538 73.4 79.1 83.2 85.7 86.8 6.02 6.48 6.94 7.10 7.21 7.70 7.75 7.78 7.82 7.88 366 375 380 384 388 8.0 17.2 19.9 23.9 28.9
84 6/23/2000 24.0 24.1 24.5 25.0 25.2 250 256 269 505 563 68.9 71.8 79.7 83.2 86.5 5.69 5.92 6.64 6.97 7.20 7.77 7.79 7.83 7.86 7.89 364 367 375 384 387 1.0 5.1 17.8 30.3 31.9
85 6/24/2000 24.4 24.5 24.7 25.3 25.5 255 257 269 460 525 63.1 66.1 76.1 78.9 81.4 5.16 5.41 6.33 6.56 6.77 7.66 7.69 7.79 7.85 7.90 380 385 391 406 409 16.2 18.0 21.6 29.6 39.2
86 6/25/2000 24.5 24.5 24.9 25.5 25.8 255 256 272 405 613 66.8 70.6 75.5 80.0 80.9 5.44 5.89 6.28 6.67 6.70 7.74 7.75 7.79 7.86 7.89 378 381 386 394 397 16.1 17.1 18.6 26.5 31.7
87 6/26/2000 24.5 24.6 24.8 25.5 25.7 254 256 276 443 636 64.8 72.7 77.0 81.8 83.5 5.29 6.00 6.39 6.76 6.85 7.77 7.78 7.84 7.91 7.94 317 339 377 386 393 0.8 16.2 22.0 35.9 40.4
88 6/27/2000 24.3 24.4 24.8 25.4 25.7 251 255 270 360 565 65.3 74.1 80.3 82.1 84.4 5.33 6.12 6.64 6.75 6.96 7.76 7.80 7.89 7.92 7.96 324 328 350 361 363 0.1 8.4 27.5 36.9 40.2
89 6/28/2000 24.6 24.7 25.1 25.5 25.7 254 256 269 407 597 61.4 70.2 78.9 81.2 81.9 5.03 5.75 6.49 6.69 6.73 7.71 7.77 7.84 7.90 7.93 318 323 350 363 371 0.1 2.9 31.3 47.3 55.4
90 6/29/2000 24.6 24.7 25.2 25.5 25.7 247 255 269 458 547 61.6 67.7 76.2 79.0 80.0 5.07 5.59 6.31 6.48 6.55 7.76 7.80 7.84 7.92 7.95 328 334 352 363 367 0.1 16.0 28.5 46.1 53.9
91 6/30/2000 24.3 24.3 24.6 25.0 25.4 243 250 267 553 644 64.8 69.5 75.8 78.6 79.1 5.35 5.78 6.31 6.55 6.61 7.79 7.81 7.90 7.98 8.08 340 343 353 371 375 0.1 0.1 24.4 44.5 54.4
92 7/1/2000 23.4 23.5 23.8 24.0 24.3 242 245 263 413 533 75.0 75.5 78.5 84.7 86.6 6.32 6.35 6.66 7.16 7.31 7.43 7.44 7.54 7.89 8.04 354 362 380 393 396 12.6 28.9 41.1 57.0 70.1
93 7/2/2000 23.0 23.1 23.3 23.5 23.8 238 242 253 459 645 75.4 77.9 79.4 84.5 87.6 6.44 6.62 6.77 7.24 7.49 7.40 7.43 7.50 7.71 7.92 351 374 399 412 416 31.5 38.9 46.6 82.9 180.9
94 7/3/2000 22.6 22.9 23.0 23.2 23.3 234 239 247 540 665 74.2 74.9 79.2 84.0 89.0 6.35 6.42 6.78 7.18 7.68 7.33 7.37 7.47 7.71 7.84 378 393 413 418 427 33.2 39.0 52.9 86.8 173.2
95 7/4/2000 22.5 22.6 23.1 23.6 23.7 229 234 247 510 639 70.7 74.0 76.2 78.8 85.8 6.05 6.38 6.53 6.80 7.38 7.31 7.32 7.40 7.73 7.91 380 400 424 436 441 38.5 45.6 57.7 82.7 193.5
96 7/5/2000 22.6 22.6 22.8 23.0 23.4 223 225 252 435 504 68.1 69.7 73.1 77.7 81.1 5.88 6.01 6.31 6.68 6.99 7.32 7.33 7.37 7.59 7.66 396 423 437 449 451 39.1 45.5 62.0 71.2 73.1
97 7/6/2000                                                                      
98 7/7/2000                                                                      
99 7/8/2000                                                                      
100 7/9/2000                                                                      
101 7/10/2000                                                                      
102 7/11/2000 23.8 23.9 24.3 24.7 24.7 225 228 241 291 381 82.9 84.4 90.2 91.7 91.9 6.97 7.08 7.53 7.67 7.76 7.80 7.81 7.84 7.85 7.86 336 336 345 348 352 3.7 6.2 15.7 20.7 22.4
103 7/12/2000 23.4 23.4 23.7 24.1 24.3 223 225 230 312 437 78.5 83.0 92.0 94.6 96.3 6.66 7.06 7.82 7.95 8.06 7.79 7.81 7.90 7.97 8.01 312 316 347 364 368 1.0 12.2 15.2 25.9 33.6
104 7/13/2000 23.0 23.1 23.4 24.0 24.0 217 221 231 326 528 72.9 82.7 90.5 92.9 93.6 6.20 7.05 7.64 7.94 7.99 7.83 7.85 7.94 8.00 8.04 310 316 346 357 366 2.1 7.3 16.6 28.4 33.9
105 7/14/2000 22.8 22.9 23.4 23.8 24.0 216 223 228 301 421 74.8 81.2 87.7 91.7 92.5 6.36 6.94 7.47 7.81 7.88 7.78 7.81 7.92 8.00 8.05 311 318 354 363 371 0.6 5.3 18.1 28.7 38.2
106 7/15/2000 22.5 22.6 23.2 23.7 24.2 217 224 232 361 503 64.9 72.3 84.1 86.2 87.2 5.44 6.16 7.17 7.39 7.50 7.76 7.82 7.90 7.96 7.97 337 348 365 373 375 4.7 9.2 19.7 26.3 30.1
107 7/16/2000 22.4 22.5 22.8 23.2 23.6 226 231 240 379 549 68.1 75.7 85.3 87.5 88.4 5.78 6.45 7.35 7.54 7.61 7.80 7.83 7.88 7.98 7.98 351 356 372 380 383 16.7 20.6 25.9 30.8 43.4
108 7/17/2000 22.0 22.1 22.6 22.8 23.0 231 234 243 380 558 72.9 75.6 85.5 91.8 95.3 6.29 6.59 7.47 7.90 8.19 7.85 7.88 7.92 7.98 8.02 316 324 373 381 386 18.0 19.7 28.2 34.5 47.5
109 7/18/2000 22.3 22.4 22.7 23.3 23.5 233 238 245 423 535 75.4 78.7 86.4 90.1 92.0 6.47 6.79 7.47 7.75 7.84 7.74 7.76 7.78 7.87 7.90 343 351 365 371 374 15.4 20.6 25.3 34.7 46.6
110 7/19/2000 22.6 22.7 23.1 23.5 23.7 235 239 243 349 478 73.0 81.6 85.5 89.0 90.6 6.19 6.97 7.39 7.58 7.66 7.64 7.67 7.70 7.76 7.79 347 352 369 382 387 0.5 4.8 22.9 27.3 34.0
111 7/20/2000 22.7 22.8 23.3 23.7 23.7 241 242 244 297 473 71.8 80.9 85.6 88.8 90.4 6.09 6.89 7.33 7.52 7.65 7.63 7.65 7.68 7.79 7.82 348 355 377 385 386 2.2 6.3 21.0 24.1 30.4
112 7/21/2000 23.2 23.2 23.4 23.7 23.9 244 246 249 307 398 77.6 81.0 85.4 88.2 90.1 6.57 6.87 7.27 7.48 7.63 7.63 7.65 7.73 7.81 7.84 357 361 374 387 390 1.6 4.5 14.9 26.7 30.5
113 7/22/2000 22.8 22.8 23.2 23.7 23.8 243 244 249 360 477 76.3 79.0 82.3 85.9 87.9 6.48 6.73 7.07 7.34 7.43 7.69 7.70 7.73 7.80 7.84 377 378 385 388 390 5.3 11.3 21.2 24.8 28.5
114 7/23/2000 23.2 23.3 24.0 24.4 24.5 242 242 246 349 434 73.9 75.4 81.3 83.4 84.3 6.21 6.36 6.89 7.01 7.07 7.62 7.63 7.68 7.74 7.77 388 390 395 400 401 3.2 5.5 21.1 30.9 37.7
115 7/24/2000 23.9 24.0 24.2 24.7 24.9 242 243 246 313 365 64.2 68.7 76.6 88.8 90.7 5.06 5.40 6.44 7.40 7.55 7.42 7.51 7.61 7.69 7.70 331 333 404 413 417 16.6 18.2 22.7 31.5 34.5
116 7/25/2000 24.1 24.2 24.6 25.0 25.1 246 247 253 323 406 80.2 86.8 90.1 93.9 95.3 6.64 7.28 7.52 7.76 7.98 7.44 7.48 7.53 7.58 7.61 315 318 327 339 342 2.7 16.9 20.4 29.9 40.8
117 7/26/2000 23.9 23.9 24.2 24.5 24.7 245 246 254 318 359 82.2 84.8 89.0 93.0 95.4 6.92 7.12 7.47 7.74 7.93 7.53 7.56 7.64 7.70 7.73 297 300 311 325 328 5.4 17.1 22.0 32.7 43.0
118 7/27/2000 23.0 23.1 23.7 24.3 24.5 247 252 262 394 469 79.1 80.8 88.4 93.0 94.4 6.77 6.91 7.49 7.79 7.91 7.62 7.62 7.68 7.74 7.75 293 298 310 317 319 17.1 19.5 25.8 36.7 39.6
119 7/28/2000 23.7 23.8 24.2 24.9 25.0 244 247 257 413 486 75.7 77.8 85.8 90.5 93.2 6.39 6.56 7.22 7.55 7.71 7.57 7.59 7.63 7.67 7.69 301 305 318 328 330 10.9 18.2 22.0 33.6 38.4
120 7/29/2000 24.4 24.5 24.8 25.2 25.5 239 241 249 420 526 73.3 76.8 84.6 89.2 90.8 6.06 6.36 7.03 7.43 7.54 7.52 7.55 7.58 7.64 7.66 307 310 331 343 353 3.2 17.5 21.6 35.3 41.2
121 7/30/2000 24.9 24.9 25.3 25.5 25.8 238 239 245 389 483 67.8 71.4 80.6 85.1 85.7 5.54 5.86 6.64 7.03 7.09 7.49 7.50 7.53 7.57 7.60 324 329 359 374 380 19.9 21.1 29.7 39.2 45.8
122 7/31/2000 25.2 25.2 25.5 26.0 26.1 233 235 240 267 317 67.2 70.7 79.8 101.2 104.8 5.48 5.82 6.56 8.20 8.52 7.46 7.47 7.52 7.67 7.69 309 310 386 401 403 19.8 21.4 26.1 31.3 33.8
123 8/1/2000 25.7 25.7 26.1 26.5 26.8 236 237 244 331 509 82.4 89.8 96.2 102.0 103.0 6.60 7.24 7.82 8.20 8.37 7.57 7.58 7.61 7.63 7.64 301 307 317 323 325 23.7 26.4 31.2 41.2 50.4
124 8/2/2000 25.8 25.9 26.4 26.7 27.1 231 233 238 325 478 81.0 85.1 93.0 97.7 101.7 6.47 6.86 7.49 7.85 8.23 7.54 7.56 7.67 7.73 7.83 291 297 308 328 331 25.9 28.6 35.0 45.1 53.5
125 8/3/2000 26.0 26.0 26.4 26.6 27.3 230 231 235 285 516 83.0 88.1 93.7 99.7 102.4 6.59 7.10 7.56 8.03 8.22 7.69 7.70 7.77 7.82 7.84 295 298 311 324 325 20.4 24.4 32.3 46.5 55.5
126 8/4/2000 25.6 25.6 26.0 26.5 27.2 233 235 246 394 582 72.8 81.2 88.4 93.1 97.7 5.79 6.52 7.20 7.54 7.92 7.65 7.66 7.74 7.80 7.83 313 316 325 337 342 21.7 25.9 34.4 42.5 50.8
127 8/5/2000 25.3 25.4 25.6 26.3 27.0 233 235 248 379 542 77.8 80.1 85.4 90.9 93.7 6.25 6.51 6.99 7.43 7.67 7.65 7.67 7.73 7.81 7.85 324 330 345 362 367 24.2 28.4 35.5 42.9 52.7
128 8/6/2000 24.7 24.8 25.2 25.6 26.1 234 236 247 310 463 68.7 78.7 86.4 88.4 89.9 5.58 6.47 7.11 7.32 7.43 7.71 7.74 7.80 7.87 7.90 340 342 362 377 382 26.2 29.7 36.4 48.1 54.2
129 8/7/2000 24.0 24.2 24.4 24.6 24.7 237 244 257 309 348 60.0 60.7 63.7 83.0 86.4 4.99 5.05 5.31 6.92 7.18 7.82 7.85 8.17 8.21 8.22 250 262 284 382 385 1.8 9.0 18.8 36.4 47.3
130 8/8/2000 23.9 24.0 24.4 25.1 25.2 243 247 254 362 420 52.6 54.8 57.3 60.6 63.2 4.35 4.58 4.76 5.06 5.27 8.07 8.10 8.15 8.19 8.20 272 275 292 297 302 1.3 5.8 13.1 16.3 18.1
131 8/9/2000 24.2 24.4 24.8 25.1 25.2 240 243 254 354 490 50.6 52.6 57.1 58.3 59.1 4.21 4.36 4.70 4.80 4.88 8.02 8.05 8.13 8.20 8.22 276 280 302 309 317 9.7 11.0 13.5 18.8 26.6
132 8/10/2000 23.8 23.9 24.2 24.6 24.8 240 243 251 388 447 50.7 53.2 56.9 59.1 59.6 4.26 4.47 4.75 4.90 4.98 8.04 8.08 8.16 8.24 8.25 279 285 310 318 323 3.3 5.4 13.3 17.5 22.6
133 8/11/2000 23.8 23.9 24.3 24.8 24.8 234 239 245 367 503 50.2 52.0 55.4 57.1 57.8 4.21 4.35 4.61 4.77 4.84 8.05 8.07 8.17 8.24 8.26 292 296 322 332 335 4.4 8.4 14.3 16.6 28.5
134 8/12/2000 23.8 24.0 24.5 24.9 25.0 236 238 245 301 372 49.3 50.9 53.3 55.6 56.9 4.12 4.21 4.41 4.64 4.79 8.08 8.12 8.18 8.22 8.23 298 304 337 346 362 2.6 16.0 20.8 24.6 28.2
135 8/13/2000 23.7 23.8 24.3 24.8 24.8 234 236 245 293 365 48.8 50.1 52.4 57.9 59.4 4.04 4.18 4.40 4.80 4.91 8.06 8.08 8.13 8.19 8.20 316 325 357 368 373 1.8 5.6 19.6 23.5 26.5
136 8/14/2000 23.9 24.0 24.5 24.8 24.9 232 235 248 357 461 48.5 50.2 53.5 55.6 57.2 4.06 4.21 4.44 4.64 4.74 8.02 8.06 8.10 8.19 8.21 329 333 359 374 375 1.5 15.3 18.4 25.8 42.0
137 8/15/2000 24.0 24.1 24.6 24.9 25.0 231 234 242 294 425 48.7 49.9 53.8 57.0 58.1 4.02 4.13 4.47 4.70 4.82 8.07 8.09 8.12 8.21 8.24 327 332 354 366 368 12.8 14.6 18.1 22.9 35.2
138 8/16/2000 24.2 24.3 24.8 25.0 25.1 229 230 237 285 380 48.4 50.0 86.2 96.5 97.9 4.02 4.15 7.12 7.94 8.06 7.77 8.01 8.10 8.14 8.15 264 271 314 366 370 8.3 10.3 14.2 19.1 26.7
139 8/17/2000 24.4 24.5 24.7 25.1 25.2 228 232 237 272 361 87.3 87.7 89.7 93.8 94.8 7.24 7.27 7.44 7.75 7.82 7.51 7.56 7.59 7.67 7.68 306 310 318 330 335 8.4 9.5 12.4 16.2 19.5
140 8/18/2000 23.7 23.8 24.2 24.4 24.6 228 229 242 297 439 84.1 85.2 87.5 92.0 93.7 7.06 7.15 7.33 7.69 7.82 7.49 7.50 7.59 7.69 7.77 312 318 330 338 341 0.5 2.1 11.5 15.2 18.5
141 8/19/2000 23.5 23.6 23.8 24.0 24.1 230 231 246 356 500 84.8 85.5 87.8 91.2 94.2 7.12 7.20 7.39 7.66 7.91 7.53 7.54 7.64 7.70 7.83 301 314 330 342 344 2.1 3.1 13.0 20.0 22.0
142 8/20/2000 22.9 23.0 23.5 24.0 24.0 234 235 249 383 482 84.8 85.4 87.2 89.7 91.7 7.19 7.26 7.41 7.53 7.68 7.55 7.56 7.59 7.72 7.82 317 335 349 359 366 4.8 6.8 18.6 22.1 23.3
143 8/21/2000 23.3 23.4 23.9 24.5 24.7 235 238 247 390 441 81.4 83.2 85.2 89.3 93.5 6.91 7.04 7.18 7.46 7.81 7.53 7.55 7.68 7.75 7.86 284 291 374 383 385 0.8 2.5 21.3 25.0 31.0
144 8/22/2000 23.9 23.9 24.4 24.7 24.8 240 244 256 394 428 83.0 84.1 87.3 89.3 91.4 6.97 7.10 7.29 7.44 7.63 7.81 7.84 7.89 7.91 7.94 288 289 293 298 301 6.4 17.0 21.4 27.4 30.0
145 8/23/2000 23.9 24.0 24.2 24.5 24.7 243 250 265 405 467 80.8 85.1 89.3 93.0 93.3 6.81 7.16 7.50 7.76 7.82 7.87 7.90 7.95 7.97 8.00 289 292 300 306 309 8.1 15.5 20.6 24.6 30.1
146 8/24/2000 23.5 23.5 23.8 24.3 24.5 249 252 263 432 476 83.2 84.5 90.7 94.2 96.0 7.07 7.17 7.65 7.89 8.01 7.93 7.94 8.03 8.10 8.12 295 301 312 321 322 0.8 7.3 18.4 22.1 23.0
147 8/25/2000 23.7 23.7 23.9 24.2 24.4 257 259 265 388 439 84.9 87.1 93.5 99.1 102.0 7.19 7.35 7.87 8.30 8.52 7.91 7.93 8.10 8.28 8.34 296 303 326 337 344 4.7 14.8 20.7 26.6 34.2
148 8/26/2000 23.3 23.3 23.8 24.4 24.4 260 265 276 371 440 84.0 90.2 94.6 104.4 106.1 7.13 7.70 8.03 8.72 8.87 7.89 8.00 8.18 8.35 8.42 294 303 338 353 359 3.4 10.7 25.0 30.6 34.8
149 8/27/2000 23.5 23.5 24.0 24.4 24.5 266 272 277 385 449 82.1 88.1 95.6 105.0 107.4 6.94 7.46 8.12 8.81 8.96 7.83 7.98 8.20 8.44 8.53 298 308 358 369 378 5.2 23.9 31.0 36.7 42.2
150 8/28/2000 23.5 23.5 23.9 24.3 24.4 270 273 286 364 417 79.8 85.9 95.7 118.2 120.3 6.73 7.26 8.10 9.87 10.05 7.84 7.99 8.24 8.32 8.38 270 275 357 372 383 1.1 4.9 25.8 39.5 42.0
151 8/29/2000 22.6 22.7 23.1 23.6 23.7 272 274 281 342 399 89.5 93.6 103.8 105.4 107.4 7.67 8.07 8.86 9.05 9.19 7.81 7.95 8.26 8.36 8.40 296 300 307 322 331 0.1 11.0 27.6 36.4 50.7
152 8/30/2000 21.7 21.9 22.2 22.3 22.4 275 278 286 354 390 84.4 88.4 97.9 102.5 103.5 7.37 7.75 8.53 8.91 9.00 7.77 7.87 8.12 8.23 8.31 305 312 326 336 342 21.2 23.4 30.0 35.7 45.6
153 8/31/2000 21.4 21.5 21.7 22.0 22.1 283 285 292 357 388 87.4 90.8 97.3 102.7 104.7 7.70 8.00 8.57 8.98 9.17 7.87 7.93 8.10 8.23 8.34 306 317 334 345 350 22.5 25.3 30.1 36.2 49.3
154 9/1/2000 20.8 20.9 21.4 21.5 21.7 287 289 296 358 371 89.0 89.8 95.1 98.1 99.0 7.90 7.97 8.41 8.75 8.81 7.89 7.91 8.03 8.14 8.20 346 349 352 357 360 18.4 22.5 28.7 32.7 37.9
155 9/2/2000 20.6 20.7 20.9 21.1 21.1 293 295 298 344 377 85.3 87.0 89.4 94.3 96.0 7.61 7.82 7.99 8.43 8.59 7.86 7.87 7.93 8.06 8.08 352 357 362 368 371 23.8 26.7 30.8 36.1 42.3
156 9/3/2000 20.4 20.5 20.8 21.0 21.2 291 293 303 361 376 85.0 85.9 89.2 96.2 98.4 7.61 7.68 8.03 8.55 8.82 7.84 7.88 7.92 8.10 8.14 350 357 364 377 380 24.8 29.5 34.9 41.4 53.5
157 9/4/2000 20.2 20.2 20.7 20.9 20.9 285 291 301 383 402 85.7 88.6 94.0 99.6 101.0 7.75 7.96 8.42 8.91 9.07 7.89 7.92 8.03 8.14 8.22 354 358 365 378 380 24.8 28.8 33.9 40.9 46.0
158 9/5/2000 20.1 20.2 20.6 20.9 21.0 281 286 293 381 421 88.1 90.1 100.1 114.4 118.9 7.99 8.16 9.00 10.24 10.64 7.39 7.54 7.96 8.23 8.26 309 337 357 371 376 25.2 29.7 35.2 42.9 47.6
159 9/6/2000 20.3 20.4 20.7 21.3 21.4 286 288 296 377 420 108.6 110.7 118.9 121.2 122.5 9.79 9.97 10.56 10.80 10.91 7.37 7.42 7.59 7.65 7.71 336 341 356 377 382 32.8 35.7 42.7 46.8 48.0
160 9/7/2000 20.7 20.7 21.0 21.8 21.8 282 291 296 364 400 110.3 112.9 122.7 126.9 128.6 9.90 10.12 10.85 11.27 11.44 7.46 7.49 7.65 7.82 7.91 318 328 354 371 378 29.7 32.6 37.6 43.0 48.2
161 9/8/2000 21.1 21.2 21.5 21.9 22.0 275 282 291 314 371 115.6 120.4 124.3 132.7 135.3 10.27 10.67 10.99 11.63 11.83 7.55 7.61 7.84 8.03 8.11 300 306 340 364 369 30.9 33.6 37.9 42.7 52.5
162 9/9/2000 21.1 21.1 21.4 22.0 22.1 274 282 292 366 395 110.9 117.3 124.8 135.4 136.4 9.87 10.42 10.99 11.86 11.96 7.56 7.66 7.84 8.07 8.17 291 300 346 361 377 33.4 34.7 40.6 44.7 48.6
163 9/10/2000 21.4 21.5 21.7 22.2 22.3 278 282 292 391 450 116.9 120.5 125.8 135.2 137.3 10.34 10.64 11.01 11.81 11.95 7.70 7.78 7.85 8.08 8.17 297 308 349 362 366 35.7 37.5 42.2 47.1 54.7
164 9/11/2000 21.6 21.7 22.0 22.4 22.5 278 284 293 374 420 119.0 119.7 124.9 139.4 142.1 10.46 10.50 10.93 12.10 12.31 7.65 7.74 7.87 8.40 8.46 280 299 342 358 361 31.3 34.2 41.0 50.8 75.4
165 9/12/2000 21.7 21.9 22.0 22.1 22.4 282 286 292 340 441 123.5 125.1 129.1 134.9 137.0 10.76 10.94 11.30 11.76 11.98 7.79 7.83 8.04 8.29 8.40 292 304 324 337 356 29.1 30.3 35.5 40.3 54.2
166 9/13/2000 21.7 21.7 22.1 22.2 22.3 286 293 299 329 428 113.2 122.9 126.2 134.8 137.2 9.88 10.74 11.05 11.73 11.95 7.67 7.80 7.95 8.12 8.25 280 295 333 350 360 27.6 31.0 35.8 41.4 51.4
167 9/14/2000 21.5 21.6 22.1 22.2 22.5 295 299 305 417 479 111.9 116.2 119.9 134.4 135.9 9.76 10.08 10.50 11.73 11.85 7.66 7.73 7.88 8.22 8.30 283 289 343 355 363 19.9 28.9 34.5 43.3 45.8
168 9/15/2000 21.6 21.7 22.1 22.3 22.4 300 302 308 351 390 114.7 115.9 119.3 131.5 133.5 10.04 10.16 10.44 11.45 11.61 7.75 7.77 7.93 8.21 8.26 284 291 332 343 349 26.2 29.0 35.4 46.3 53.8
169 9/16/2000 21.7 21.7 22.1 22.4 22.5 303 309 313 350 411 107.9 109.0 115.1 120.0 121.4 9.41 9.53 10.08 10.42 10.54 7.63 7.64 7.89 8.03 8.08 311 319 342 353 358 22.3 33.1 38.8 44.3 49.8
170 9/17/2000 22.2 22.2 22.5 22.9 23.0 312 316 326 360 426 100.6 102.1 107.2 110.6 113.5 8.66 8.82 9.23 9.60 9.80 7.48 7.50 7.68 7.81 7.89 338 350 362 373 376 11.8 14.9 25.2 43.2 46.8
171 9/18/2000 22.5 22.6 22.8 23.2 23.4 314 322 333 374 444 96.2 99.3 102.7 106.0 108.9 8.22 8.56 8.82 9.11 9.32 7.53 7.55 7.71 7.82 7.90 351 356 368 375 385 4.5 6.3 12.9 29.0 43.0
172 9/19/2000 22.8 23.0 23.3 23.6 23.7 314 321 333 358 433 95.1 95.7 98.1 100.3 101.8 8.07 8.17 8.37 8.58 8.71 7.40 7.42 7.48 7.67 7.72 377 380 386 395 399 4.1 7.7 32.6 37.0 39.9
173 9/20/2000 23.3 23.4 23.7 23.9 24.0 311 317 331 361 403 94.0 95.0 95.7 96.6 97.7 7.98 8.04 8.10 8.20 8.32 7.29 7.30 7.33 7.40 7.42 386 390 407 414 417 26.5 27.3 31.3 33.8 35.3
174 9/21/2000 23.0 23.1 23.2 23.4 23.6 305 312 330 363 386 92.4 94.2 96.1 98.9 100.8 7.92 8.05 8.19 8.44 8.61 7.27 7.29 7.33 7.37 7.42 385 389 415 424 427 3.7 23.2 27.7 34.2 37.2
175 9/22/2000 22.8 22.8 23.0 23.3 23.4 312 321 337 395 418 90.4 91.4 94.0 98.6 103.5 7.76 7.86 8.05 8.48 8.92 7.27 7.29 7.32 7.36 7.43 399 402 415 428 431 0.1 2.8 25.0 29.8 40.8
176 9/23/2000 22.6 22.6 22.7 22.9 23.0 330 331 347 475 504 87.3 88.1 89.8 93.0 95.5 7.54 7.60 7.76 8.00 8.20 7.26 7.28 7.31 7.33 7.38 403 409 424 434 437 0.1 2.2 6.2 23.9 39.1
177 9/24/2000 22.0 22.1 22.5 22.7 22.9 316 325 351 461 521 87.1 88.0 89.7 91.7 92.0 7.53 7.63 7.80 7.92 7.95 7.24 7.25 7.28 7.31 7.33 412 416 433 441 445 6.8 10.3 27.9 37.3 39.8
178 9/25/2000 22.0 22.1 22.4 22.7 22.7 324 327 353 379 415 82.1 84.6 89.6 90.8 91.5 7.13 7.37 7.75 7.88 7.99 7.20 7.22 7.26 7.50 7.52 360 377 440 451 455 0.1 0.1 27.8 41.7 47.0
179 9/26/2000 22.1 22.1 22.5 22.7 22.8 340 347 369 394 428 83.9 85.2 88.3 90.8 91.6 7.31 7.41 7.65 7.83 7.89 7.47 7.49 7.55 7.59 7.60 389 390 404 415 417 0.1 0.1 16.7 27.4 33.0
180 9/27/2000 21.9 22.0 22.3 22.4 22.5 342 352 377 403 448 85.8 86.6 88.4 91.3 91.7 7.49 7.55 7.71 7.93 7.97 7.56 7.56 7.87 7.90 7.91 353 358 364 417 420 0.1 0.1 18.3 22.6 31.2
181 9/28/2000 21.0 21.2 21.4 21.6 21.6 358 386 409 420 454 87.5 88.3 90.7 93.4 94.4 7.74 7.80 8.02 8.25 8.39 7.87 7.89 7.96 7.99 8.00 359 362 373 392 393 13.2 14.2 19.7 26.2 32.4
182 9/29/2000 20.5 20.9 21.2 21.8 22.0 354 365 400 420 446 84.5 86.4 88.8 93.7 95.5 7.51 7.69 7.87 8.34 8.60 7.85 7.89 7.93 8.02 8.03 371 380 384 389 399 14.4 17.0 20.4 25.7 31.1
183 9/30/2000 21.1 21.2 21.9 22.1 22.1 414 414 418 490 505 77.6 77.8 90.2 91.3 91.4 6.90 6.91 7.88 7.99 8.00 7.77 7.78 7.89 7.95 7.95 356 357 401 406 406 17.3 18.3 28.0 91.6 99.9
184 10/1/2000 21.6 21.9 22.1 22.3 22.4 367 372 402 432 451 81.9 83.2 86.9 95.7 108.3 7.17 7.24 7.57 8.43 9.45 7.50 7.52 7.57 7.75 7.97 364 385 412 425 432 0.8 3.2 10.0 44.3 125.0
185 10/2/2000 21.5 21.6 21.9 22.0 22.1 352 375 426 489 504 76.7 78.7 88.1 97.7 100.0 6.72 6.91 7.73 8.53 8.74 7.47 7.50 7.57 7.68 7.73 316 336 415 434 439 7.3 15.2 27.4 41.6 75.9
186 10/3/2000 21.0 21.0 21.7 22.0 22.1 355 371 419 549 583 91.9 93.6 95.9 97.9 98.8 8.12 8.25 8.47 8.62 8.77 7.48 7.53 7.54 7.57 7.61 354 365 371 379 380 0.1 9.2 18.3 25.4 31.4
187 10/4/2000 21.0 21.2 21.7 22.0 22.1 360 382 408 503 566 92.9 93.7 96.0 97.1 97.3 8.18 8.28 8.46 8.53 8.62 7.50 7.51 7.54 7.56 7.57 374 377 386 398 400 0.1 0.1 13.8 21.1 26.1
188 10/5/2000 20.9 21.1 21.6 21.8 21.9 371 383 414 461 544 91.7 93.3 96.5 99.1 99.6 8.10 8.25 8.53 8.70 8.73 7.52 7.54 7.58 7.60 7.63 375 381 389 392 397 0.1 9.8 14.3 25.6 29.3
189 10/6/2000 21.0 21.1 21.3 21.5 21.5 406 413 438 493 558 92.9 94.3 95.8 96.7 97.4 8.24 8.36 8.49 8.59 8.64 7.53 7.55 7.60 7.62 7.63 386 389 398 403 404 8.6 9.6 12.5 23.0 27.0
190 10/7/2000 20.4 20.5 20.7 20.9 21.0 352 395 447 500 569 92.3 92.9 95.7 97.9 98.4 8.28 8.33 8.56 8.76 8.79 7.54 7.57 7.64 7.66 7.68 384 388 401 411 414 9.2 11.0 13.6 25.2 27.8
191 10/8/2000 20.1 20.3 20.7 20.9 20.9 332 366 432 555 606 90.5 91.8 94.4 97.1 97.8 8.20 8.31 8.49 8.69 8.74 7.56 7.59 7.62 7.64 7.65 399 403 412 419 423 11.0 12.1 16.3 23.4 30.8
192 10/9/2000 19.7 19.8 20.0 20.5 20.6 368 383 444 543 563 89.4 90.6 93.8 96.4 97.6 8.15 8.28 8.48 8.78 8.88 7.49 7.54 7.61 7.65 7.68 404 412 421 424 427 14.2 16.3 19.0 27.3 30.0
193 10/10/2000 19.0 19.2 19.4 19.7 19.9 401 421 453 492 507 87.5 90.3 93.0 96.1 97.2 8.11 8.32 8.54 8.80 8.91 7.49 7.56 7.62 7.65 7.68 414 415 421 424 427 11.8 13.7 21.7 55.7 82.1
194 10/11/2000 18.7 18.8 19.0 19.1 19.1 397 407 446 474 497 82.6 84.8 88.3 90.4 92.8 7.70 7.88 8.21 8.38 8.60 7.59 7.61 7.63 7.71 7.72 327 336 422 428 433 13.9 16.3 21.8 32.5 124.7
195 10/12/2000 18.4 18.5 18.6 18.7 18.7 385 401 449 488 499 79.1 80.2 83.6 85.1 87.7 7.42 7.51 7.77 7.93 8.17 7.60 7.63 7.65 7.69 7.72 315 319 324 330 336 17.1 19.6 24.2 32.7 47.4
196 10/13/2000 18.3 18.4 18.6 18.8 18.8 378 398 452 487 498 78.1 80.3 82.5 87.0 87.7 7.34 7.53 7.70 8.11 8.16 7.65 7.65 7.70 7.75 7.78 317 319 327 335 339 15.9 20.5 26.9 30.2 32.3
197 10/14/2000 18.3 18.5 18.7 18.8 18.9 381 396 453 482 489 78.5 79.3 82.2 86.0 86.7 7.34 7.38 7.68 8.01 8.06 7.68 7.70 7.74 7.78 7.80 318 320 333 344 350 14.4 17.4 22.0 29.3 31.3
198 10/15/2000 18.4 18.5 18.7 19.0 19.1 401 413 446 469 482 80.1 82.0 83.8 86.7 87.6 7.52 7.64 7.82 8.06 8.15 7.74 7.76 7.80 7.82 7.85 326 328 342 352 361 14.3 16.1 23.1 28.0 34.7
199 10/16/2000 18.5 18.6 18.8 19.0 19.2 394 405 443 481 525 79.6 81.2 83.3 85.3 87.0 7.45 7.55 7.74 7.93 8.07 7.39 7.44 7.80 7.82 7.87 309 315 332 350 359 12.4 14.2 18.4 28.1 34.4
200 10/17/2000 18.5 18.7 18.9 19.1 19.2 406 414 437 484 551 72.7 77.0 81.0 82.5 84.0 6.81 7.19 7.52 7.65 7.77 7.37 7.41 7.46 7.50 7.51 300 302 316 321 325 13.1 14.1 19.8 25.9 32.1
201 10/18/2000 18.6 18.7 18.9 19.1 19.2 400 409 421 454 522 73.2 77.6 81.9 82.8 83.3 6.86 7.25 7.58 7.67 7.74 7.36 7.39 7.45 7.48 7.52 311 314 320 323 325 12.0 12.8 18.6 31.0 42.4
202 10/19/2000 18.3 18.5 18.8 19.1 19.1 332 343 369 433 468 73.1 77.8 82.6 83.6 84.1 6.88 7.28 7.69 7.75 7.80 7.45 7.46 7.52 7.54 7.57 316 330 342 364 381 11.4 12.5 17.0 29.7 36.2
203 10/20/2000 18.4 18.5 18.7 18.9 18.9 330 332 356 426 452 71.1 75.9 81.9 83.1 84.5 6.69 7.12 7.63 7.74 7.85 7.48 7.50 7.56 7.61 7.63 388 392 414 448 453 11.0 12.7 17.7 31.3 37.3
204 10/21/2000 17.5 17.8 18.1 18.4 18.5 319 335 359 417 486 73.7 76.5 82.2 84.9 86.4 6.99 7.24 7.71 8.09 8.18 7.58 7.60 7.62 7.72 7.74 451 454 457 463 467 11.4 14.7 20.6 35.5 41.2
205 10/22/2000 16.0 16.1 16.3 17.0 17.3 331 347 389 441 473 78.1 79.5 84.6 88.6 89.8 7.69 7.81 8.20 8.72 8.82 7.72 7.74 7.78 7.94 7.97 464 467 471 476 484 14.2 15.2 21.3 35.2 45.2
206 10/23/2000 15.4 15.5 15.8 15.9 15.9 332 349 388 455 489 83.2 85.1 88.4 95.2 95.6 8.26 8.49 8.79 9.43 9.47 7.54 7.62 7.72 7.89 7.95 355 358 361 489 493 17.0 18.2 21.2 27.0 36.6
207 10/24/2000 15.3 15.5 15.7 15.8 15.9 354 369 397 451 468 87.7 88.9 93.6 95.6 96.3 8.78 8.89 9.29 9.46 9.55 7.60 7.63 7.69 7.77 7.77 333 342 352 361 365 18.0 20.0 31.0 72.0 165.4
208 10/25/2000 15.2 15.5 15.7 15.8 15.9 357 366 399 461 476 84.1 88.2 91.0 93.8 94.3 8.44 8.80 9.04 9.31 9.36 7.58 7.62 7.67 7.73 7.75 307 320 343 350 355 17.8 20.8 27.1 68.7 193.8
209 10/26/2000 15.0 15.2 15.5 15.5 15.6 375 380 417 452 463 85.4 87.5 90.2 93.8 95.1 8.61 8.77 9.00 9.36 9.50 7.48 7.52 7.61 7.68 7.73 301 322 333 343 349 20.5 24.9 43.3 185.2 196.0
210 10/27/2000 14.8 15.0 15.3 15.7 15.7 373 377 395 447 472 84.7 86.1 88.6 92.1 93.7 8.54 8.68 8.88 9.16 9.31 7.50 7.51 7.56 7.63 7.65 322 326 332 339 344 19.5 21.3 30.3 196.0 196.0
211 10/28/2000 14.7 14.9 15.3 15.4 15.5 339 359 390 446 459 84.7 86.3 88.2 91.4 92.9 8.58 8.73 8.82 9.17 9.31 7.47 7.52 7.58 7.65 7.67 324 332 341 348 350 18.0 20.2 40.2 196.0 196.0
212 10/29/2000 14.5 14.7 15.0 15.3 15.3 337 346 379 439 468 82.7 84.6 87.1 90.9 91.6 8.42 8.53 8.79 9.12 9.19 7.47 7.52 7.57 7.62 7.65 335 337 342 350 355 15.6 19.3 27.9 155.2 196.0
213 10/30/2000 14.6 14.6 14.9 15.1 15.2 330 357 372 396 418 81.3 82.3 84.9 85.7 88.4 7.63 7.71 8.40 8.63 8.75 7.42 7.47 7.55 7.83 7.84 344 349 359 361 366 16.8 20.7 25.5 53.1 158.8
214 10/31/2000 13.9 14.1 14.4 14.6 14.8 368 370 378 441 445           7.19 7.43 7.66 7.74 7.78 7.69 7.71 7.79 7.82 7.84 362 368 375 378 381 21.6 24.1 29.9 49.6 129.8
215 11/1/2000 14.3 14.4 14.5 14.6 14.6 361 363 373 415 425           6.86 7.24 7.35 7.48 7.53 7.69 7.71 7.78 7.82 7.82 379 381 384 388 391 23.9 26.0 39.1 153.8 196.0
216 11/2/2000 14.3 14.3 14.4 14.5 14.5 217 223 232 308 421           6.36 7.03 7.60 7.84 7.90 7.78 7.85 7.94 8.00 8.04 310 316 349 363 371 6.3 12.9 16.5 30.9 168.8
217 11/3/2000 14.3 14.4 14.4 14.5 14.6 216 223 230 287 364           6.20 6.85 7.38 7.61 7.74 7.80 7.83 7.90 8.00 8.05 311 318 359 370 374 5.4 7.7 17.8 21.3 28.2
218 11/4/2000 14.3 14.4 14.4 14.5 14.5 217 224 233 377 503           5.44 6.47 7.46 7.80 7.85 7.76 7.81 7.84 7.94 7.97 335 339 350 365 374 3.7 5.9 15.0 20.7 25.6
219 11/5/2000 14.2 14.3 14.3 14.4 14.5 221 223 229 312 437           6.66 7.06 7.87 7.98 8.06 7.80 7.83 7.95 7.97 8.01 312 316 345 355 368 12.4 13.7 16.6 26.3 32.5
220 11/6/2000 14.3 14.3 14.4 14.4 14.5 219 225 237 399 528           6.20 6.73 7.39 7.81 7.85 7.79 7.81 7.85 7.99 8.04 312 321 354 365 369 5.7 13.2 19.3 30.9 34.9
221 11/7/2000 14.3 14.3 14.4 14.5 14.5 222 226 282 450 516           7.48 7.85 8.58 8.92 9.07 7.72 7.74 7.83 7.97 8.01 312 316 365 379 382 12.3 14.0 27.3 54.1 66.1
222 11/8/2000 14.0 14.1 14.4 14.5 14.5 280 289 381 507 525           7.96 8.05 8.41 10.37 10.49 7.58 7.62 7.67 7.73 7.84 350 375 392 443 461 13.9 24.3 34.4 55.1 66.6
223 11/9/2000 13.4 13.4 13.6 13.8 13.9 387 411 468 527 535           9.79 9.90 10.15 10.33 10.52 7.55 7.59 7.63 7.68 7.69 461 462 464 465 469 15.0 16.8 22.9 196.0 196.0
224 11/10/2000 13.0 13.1 13.2 13.4 13.5 399 415 477 524 530           9.56 9.68 9.96 10.13 10.36 7.46 7.50 7.57 7.67 7.69 462 468 473 477 478 13.1 15.2 20.0 45.7 151.3
225 11/11/2000 12.6 12.8 13.0 13.2 13.3 410 424 483 545 575           9.43 9.50 9.81 10.12 10.31 7.52 7.55 7.60 7.66 7.69 463 464 468 474 480 15.3 16.8 22.3 114.7 174.8
226 11/12/2000 12.1 12.4 12.6 12.8 13.0 420 430 482 568 605           9.61 9.73 9.97 10.22 10.32 7.49 7.50 7.53 7.58 7.65 469 471 477 482 485 15.4 17.9 28.8 141.0 144.2
227 11/13/2000 11.7 11.9 12.3 12.5 12.7 418 445 523 584 605           9.54 9.61 9.85 10.02 10.26 7.42 7.48 7.53 7.56 7.59 411 435 475 483 484 17.8 19.8 34.0 136.5 196.0
228 11/14/2000 11.4 11.7 12.1 12.2 12.3 421 442 536 571 599           9.06 9.15 9.40 9.64 9.75 7.51 7.53 7.56 7.59 7.62 409 426 429 437 439 16.4 21.8 67.7 127.6 130.2
229 11/15/2000 11.1 11.3 11.8 11.9 12.0 444 469 535 591 622           9.30 9.33 9.44 9.57 9.65 7.55 7.56 7.58 7.62 7.63 416 424 435 445 451 19.6 24.8 82.0 124.2 129.3
230 11/16/2000 11.0 11.3 11.8 12.0 12.1 449 469 534 589 637           9.27 9.37 9.42 9.59 9.65 7.56 7.57 7.60 7.61 7.63 414 424 427 436 438 15.9 17.3 48.5 122.2 128.5
231 11/17/2000 10.8 11.3 11.6 11.8 11.8 456 473 520 572 640           9.33 9.46 9.53 9.64 9.66 7.61 7.62 7.65 7.68 7.69 400 418 437 439 442 14.6 21.4 61.1 121.1 124.8
232 11/18/2000 10.4 10.7 11.4 11.5 11.6 508 524 555 603 659           9.41 9.44 9.54 9.63 9.71 7.64 7.65 7.69 7.71 7.73 393 425 436 444 447 11.8 14.4 20.4 36.6 55.6
233 11/19/2000 10.3 10.6 11.4 11.5 11.5 500 510 538 631 668           9.42 9.48 9.60 9.71 9.74 7.66 7.66 7.70 7.74 7.76 430 435 441 447 449 11.7 12.9 17.7 110.0 115.1
234 11/20/2000 10.5 10.6 11.3 11.4 11.4 482 500 538 608 657           9.13 9.27 9.49 10.68 10.75 7.40 7.41 7.66 7.74 7.76 369 383 432 453 463 9.0 10.8 22.8 52.4 92.5
235 11/21/2000 10.6 10.9 11.2 11.2 11.2 468 493 529 568 631           9.96 10.13 10.34 10.52 10.65 7.44 7.46 7.51 7.54 7.59 450 457 462 469 472 8.1 10.0 13.8 20.1 33.1
236 11/22/2000 10.6 10.8 11.1 11.2 11.2 444 478 543 580 622           9.41 9.49 9.77 9.99 10.05 7.44 7.48 7.52 7.56 7.59 449 453 460 465 469 8.8 9.9 12.5 19.3 54.1
237 11/23/2000 10.5 10.6 11.0 11.0 11.1 462 472 519 573 621           9.37 9.46 9.68 9.78 9.89 7.46 7.47 7.51 7.55 7.58 450 452 457 461 461 10.0 10.9 12.8 17.4 20.4
238 11/24/2000 10.5 10.7 10.9 11.1 11.1 459 477 515 572 641           9.24 9.30 9.57 9.66 9.75 7.48 7.49 7.53 7.57 7.61 455 459 465 470 473 9.7 10.7 13.5 18.4 23.2
239 11/25/2000 10.4 10.6 10.7 10.8 11.0 457 467 504 569 640           9.27 9.29 9.41 9.60 9.75 7.48 7.50 7.53 7.58 7.62 446 456 464 474 477 9.4 10.9 13.1 18.4 23.8
240 11/26/2000 10.2 10.4 10.6 10.7 10.7 438 459 506 592 645           9.24 9.27 9.35 9.44 9.57 7.50 7.51 7.53 7.58 7.61 456 459 465 474 477 8.8 10.3 12.3 18.0 23.3
241 11/27/2000 10.3 10.5 10.5 10.6 10.7 450 466 513 567 655           9.24 9.36 9.53 10.00 10.11 7.43 7.46 7.52 7.59 7.63 413 443 468 474 478 8.1 9.7 14.5 28.5 34.6
242 11/28/2000 10.3 10.3 10.4 10.5 10.5 452 468 539 654 679           9.56 9.62 9.81 9.94 10.07 7.47 7.47 7.49 7.51 7.53 436 442 448 450 453 7.6 9.4 14.1 30.1 39.6
243 11/29/2000 10.2 10.3 10.4 10.6 10.6 447 457 525 642 659           9.60 9.73 9.79 9.86 9.95 7.49 7.49 7.52 7.60 7.61 435 439 444 449 454 7.6 9.3 11.9 26.0 36.7
244 11/30/2000 10.3 10.4 10.5 10.6 10.7 491 516 544 650 655           9.71 9.74 9.87 9.93 9.96 7.52 7.53 7.55 7.64 7.65 428 434 442 448 452 6.5 7.0 11.6 23.9 30.3
245 12/1/2000 10.2 10.4 10.4 10.5 10.7 533 554 572 654 767           9.62 9.71 9.89 10.02 10.05 7.55 7.57 7.61 7.66 7.71 413 423 433 446 449 6.0 6.6 10.1 24.8 32.1
246 12/2/2000 10.1 10.1 10.2 10.3 10.4 515 540 566 662 739           9.71 9.74 9.92 10.04 10.06 7.56 7.57 7.60 7.67 7.69 413 417 442 449 453 5.1 5.7 9.3 26.1 29.3
247 12/3/2000 10.0 10.0 10.1 10.2 10.3 518 539 568 657 665           9.76 9.80 9.94 10.03 10.07 7.58 7.59 7.61 7.68 7.69 418 420 454 464 468 4.5 5.3 12.5 23.1 26.3
248 12/4/2000 10.0 10.0 10.0 10.1 10.2 526 541 566 676 680 93.7 93.9 95.3 96.2 96.2 9.70 9.73 9.92 10.69 10.81 7.16 7.27 7.59 7.69 7.70 441 443 452 466 476 4.9 6.4 11.1 17.4 23.6
249 12/5/2000 9.9 9.9 10.0 10.0 10.0 514 536 587 696 708 91.1 91.9 93.1 93.8 94.3 10.29 10.40 10.50 10.59 10.65 7.15 7.16 7.24 7.31 7.32 436 438 440 444 448 3.7 5.0 8.9 15.8 17.9
250 12/6/2000 9.7 9.8 9.8 9.9 9.9 469 502 564 708 716 90.2 90.6 91.7 93.0 93.5 10.21 10.25 10.39 10.55 10.59 7.13 7.15 7.19 7.31 7.34 438 440 445 452 454 5.6 6.0 9.5 16.0 17.9
251 12/7/2000 9.6 9.7 9.8 9.9 10.0 465 498 551 716 747 89.6 90.1 91.6 92.5 93.4 10.17 10.24 10.38 10.48 10.56 7.13 7.15 7.19 7.31 7.35 396 433 444 454 455 5.4 7.0 8.9 14.8 18.7
252 12/8/2000 9.8 9.9 10.1 10.1 10.2 461 499 554 710 744 91.1 91.6 92.7 93.3 94.3 10.28 10.32 10.43 10.55 10.62 7.15 7.16 7.20 7.30 7.34 383 421 450 457 462 5.7 7.0 12.0 22.2 91.1
253 12/9/2000 10.0 10.0 10.1 10.4 10.4 457 483 549 716 737 91.4 91.8 92.4 93.1 93.5 10.28 10.33 10.38 10.45 10.51 7.15 7.16 7.19 7.33 7.35 372 411 432 449 452 5.6 7.4 11.9 105.7 114.0
254 12/10/2000 10.1 10.1 10.2 10.8 11.0 444 491 548 708 739 90.3 90.7 91.2 92.2 92.5 10.05 10.14 10.22 10.28 10.36 7.14 7.15 7.16 7.34 7.36 377 422 434 440 445 14.3 17.2 82.9 99.3 110.6
255 12/11/2000 10.1 10.2 10.3 11.2 11.4 446 454 492 727 744 88.9 89.2 90.3 91.8 92.2 9.81 9.86 10.08 10.32 10.35 7.13 7.16 7.30 7.33 7.34 396 425 441 474 477 6.3 8.6 21.9 85.6 107.2
256 12/12/2000 10.0 10.2 10.3 11.2 11.4 393 410 479 669 681 82.9 83.4 84.6 86.9 87.4 9.29 9.35 9.48 9.61 9.76 7.33 7.34 7.37 7.49 7.51 408 452 461 474 475 10.7 13.3 29.0 95.4 98.5
257 12/13/2000 10.1 10.2 10.3 11.5 11.7 403 412 495 668 680 80.3 81.2 81.7 82.6 83.0 8.76 8.85 9.15 9.26 9.29 7.35 7.37 7.41 7.55 7.57 432 457 462 470 473 9.0 14.7 61.5 95.1 98.3
258 12/14/2000 10.2 10.3 10.3 11.6 11.6 392 402 495 676 688 79.4 79.9 80.3 81.2 81.9 8.70 8.81 9.00 9.06 9.15 7.38 7.39 7.42 7.62 7.63 439 447 461 478 482 7.1 13.6 33.6 99.0 101.9
259 12/15/2000 10.4 10.4 10.7 11.5 11.6 414 419 503 681 691 77.0 77.4 78.9 80.1 80.6 8.40 8.44 8.77 8.91 8.96 7.39 7.41 7.45 7.60 7.61 308 334 460 475 481 7.8 10.0 19.7 32.9 56.1
260 12/16/2000 10.5 10.6 10.8 11.5 11.7 447 454 525 685 691 75.2 75.9 79.1 80.4 81.5 8.23 8.29 8.80 8.94 9.06 7.42 7.44 7.48 7.61 7.63 474 475 478 486 492 7.2 9.5 15.4 26.2 36.5
261 12/17/2000 10.3 10.5 10.7 11.4 11.6 434 460 531 682 693 74.4 75.1 78.7 80.0 80.6 8.14 8.21 8.75 8.91 9.01 7.43 7.48 7.54 7.61 7.66 417 466 481 488 495 7.6 9.2 13.9 23.6 32.0
262 12/18/2000 10.1 10.1 10.6 11.0 11.1 423 484 579 702 716 73.5 74.0 78.5 83.9 84.4 8.15 8.18 8.83 9.43 9.50 7.45 7.47 7.59 7.65 7.65 435 454 495 497 499 9.7 11.2 16.9 89.0 94.4
263 12/19/2000 9.9 9.9 10.1 10.4 10.6 445 474 551 719 734 77.7 78.8 81.5 83.4 83.9 8.71 8.82 9.20 9.41 9.45 7.45 7.47 7.50 7.62 7.67 464 465 468 473 475 5.6 8.7 13.3 90.2 94.5
264 12/20/2000 9.9 9.9 10.0 10.1 10.2 428 468 543 728 738 78.2 79.4 80.9 82.3 82.9 8.85 8.96 9.12 9.27 9.36 7.45 7.47 7.51 7.64 7.67 466 468 474 478 480 5.9 7.4 16.3 91.4 94.0
265 12/21/2000 9.6 9.7 9.8 9.9 10.0 424 442 525 700 728 78.2 78.6 80.2 80.6 81.0 8.91 8.92 9.09 9.13 9.18 7.45 7.47 7.50 7.63 7.67 470 471 477 481 484 9.5 11.6 88.6 92.1 94.1
266 12/22/2000 9.6 9.7 9.8 9.9 9.9 428 464 526 683 732 77.7 78.3 79.2 79.7 79.9 8.85 8.89 8.97 9.03 9.04 7.46 7.46 7.48 7.64 7.67 473 475 477 481 484 5.9 7.2 86.5 92.3 97.7
267 12/23/2000 9.6 9.7 9.8 9.9 9.9 431 459 523 669 736 77.6 78.1 78.7 79.2 79.7 8.83 8.88 8.94 8.97 9.01 7.45 7.46 7.50 7.63 7.67 472 473 474 477 479 7.0 7.5 88.5 93.9 102.9
268 12/24/2000 9.7 9.7 9.8 9.9 10.0 414 468 535 702 730 77.2 77.5 78.2 78.9 79.3 8.76 8.79 8.88 8.92 8.96 7.44 7.47 7.49 7.65 7.67 470 473 476 479 484 6.9 8.4 17.9 95.2 101.8
269 12/25/2000 9.5 9.6 9.7 9.8 9.8 428 453 548 708 730 77.4 77.7 78.4 78.7 79.0 8.83 8.85 8.92 8.95 8.97 7.48 7.50 7.51 7.69 7.71 472 475 485 487 488 12.4 67.2 90.2 94.7 102.8
270 12/26/2000 9.3 9.4 9.5 9.7 9.7 420 455 550 715 729 76.9 77.2 77.8 78.1 78.3 8.78 8.82 8.88 8.91 8.94 7.49 7.50 7.51 7.69 7.73 482 484 486 490 492 12.8 14.6 56.7 90.0 91.2
271 12/27/2000 9.3 9.3 9.4 9.5 9.6 441 455 577 726 742 76.3 76.6 77.3 77.8 78.0 8.74 8.77 8.85 8.89 8.91 7.48 7.50 7.51 7.73 7.73 470 473 478 480 483 10.7 12.0 24.9 88.4 89.8
272 12/28/2000 9.1 9.1 9.2 9.4 9.5 455 467 582 742 755 75.7 76.1 76.9 77.1 77.3 8.71 8.77 8.81 8.87 8.89 7.47 7.48 7.50 7.71 7.74 466 468 473 477 478 8.5 11.3 20.1 85.2 90.0
273 12/29/2000 8.7 8.8 9.1 9.3 9.3 462 470 577 739 757 74.5 75.0 75.9 76.9 77.3 8.58 8.64 8.72 8.93 8.97 7.46 7.47 7.50 7.69 7.80 468 469 475 479 480 4.9 7.9 11.2 17.5 21.6
274 12/30/2000 8.3 8.5 9.0 9.2 9.2 508 538 593 737 752 74.5 74.9 75.3 76.8 77.3 8.61 8.64 8.68 9.02 9.06 7.47 7.48 7.51 7.74 7.77 465 467 471 477 479 5.9 6.8 10.0 16.1 19.3
275 12/31/2000 8.1 8.2 8.9 9.1 9.1 511 550 627 744 751 73.4 73.9 74.6 75.6 76.5 8.49 8.55 8.60 8.88 8.95 7.45 7.47 7.50 7.72 7.75 468 469 472 478 484 6.0 7.4 10.4 16.1 17.6
276 1/1/2001 7.9 8.0 8.8 9.0 9.0 521 563 628 757 762 72.8 73.3 74.2 75.6 76.2 8.44 8.50 8.61 8.93 8.96 7.45 7.47 7.52 7.74 7.75 466 467 471 477 479 6.0 6.8 9.0 15.6 18.3
277 1/2/2001 7.7 7.8 8.6 8.8 8.8 485 570 636 767 776 71.7 72.2 73.4 90.9 92.5 8.36 8.40 8.69 10.63 10.91 7.42 7.47 7.55 7.75 7.76 429 459 470 473 481 2.4 4.8 7.1 15.2 17.3
278 1/3/2001 7.8 8.0 8.6 8.8 8.9 476 505 563 669 676 85.8 86.3 87.7 88.6 89.3 9.96 10.05 10.25 10.48 10.57 7.40 7.42 7.49 7.69 7.71 470 472 475 479 481 2.0 2.6 4.5 9.2 9.5
279 1/4/2001 7.9 8.2 8.5 8.7 8.7 444 473 547 660 671 82.8 83.3 84.9 86.5 87.0 9.68 9.74 9.94 10.16 10.23 7.39 7.42 7.47 7.67 7.71 467 469 475 481 484 2.5 2.9 4.9 8.9 10.5
280 1/5/2001 8.1 8.3 8.5 8.7 8.7 441 470 528 634 675 81.7 82.1 83.3 84.8 86.7 9.56 9.63 9.73 9.94 10.16 7.39 7.40 7.46 7.68 7.74 465 466 471 481 482 2.6 2.9 4.9 9.1 10.9
281 1/6/2001 8.2 8.3 8.4 8.6 8.6 424 449 521 622 669 81.0 81.6 82.5 84.6 86.1 9.50 9.54 9.67 9.94 10.11 7.39 7.40 7.46 7.66 7.72 466 467 470 476 480 2.5 3.3 4.6 8.1 10.3
282 1/7/2001 8.2 8.3 8.4 8.4 8.4 440 458 543 633 680 80.3 81.3 82.1 83.8 86.1 9.43 9.54 9.64 9.87 10.11 7.40 7.42 7.46 7.70 7.77 469 472 474 477 480 2.1 2.5 3.8 6.8 10.8
283 1/8/2001 8.3 8.3 8.4 8.5 8.6 492 505 634 682 697 80.8 81.4 84.8 94.0 94.8 9.48 9.53 9.98 11.00 11.07 6.33 6.43 7.44 7.68 7.74 469 472 481 490 505 2.4 3.0 4.6 7.3 8.8
284 1/9/2001 8.2 8.3 8.5 8.5 8.6 511 529 664 829 957 53.8 54.1 92.4 94.8 97.4 5.05 5.09 10.81 11.12 11.46 6.53 6.55 6.60 6.79 6.84 442 446 465 474 480 4.5 5.3 6.2 9.4 14.6
285 1/10/2001           611 702 791 927 1069 38.7 39.8 43.2 51.5 54.0 3.38 3.52 3.87 4.89 5.12 6.65 6.66 6.76 6.85 6.86 256 261 278 323 439 4.6 5.6 9.5 14.4 17.8
286 1/11/2001           707 724 783 849 949 39.3 41.6 118.8 122.5 127.3 3.48 3.76 10.71 11.33 12.01           233 236 249 257 264 8.0 9.0 11.1 17.5 21.0
287 1/12/2001           678 701 816 922 1009 112.3 114.1 117.9 123.0 127.2 10.18 10.24 10.77 11.63 11.98           219 229 239 244 250 10.9 13.0 19.1 87.1 90.4
288 1/13/2001           641 661 739 906 956 78.3 85.4 109.5 117.9 119.5 7.39 7.88 9.90 10.94 11.10           215 221 233 246 256 15.3 18.1 22.8 92.9 98.5
289 1/14/2001           652 670 705 829 906 58.3 69.0 104.4 111.9 118.5 5.26 6.27 9.65 10.41 11.11           213 222 238 256 262 16.5 18.5 30.1 95.7 101.5
290 1/15/2001           621 645 704 750 762 64.6 71.1 76.5 108.0 117.0 5.96 6.53 7.03 9.32 10.27           228 232 242 248 252 14.3 17.5 29.6 91.0 103.1
291 1/16/2001 7.8 8.1 8.5 8.6 8.6 547 578 720 758 773 88.5 88.5 100.0 104.0 112.4 8.13 8.50 9.01 10.36 11.10 7.43 7.45 7.51 7.52 7.52 203 207 256 357 366 8.3 11.0 27.5 100.7 106.4
292 1/17/2001 7.6 7.7 7.8 7.9 8.0 509 537 589 607 696 82.5 86.2 88.7 95.0 97.3 9.83 10.27 10.52 11.34 11.62 7.46 7.49 7.54 7.58 7.59 290 317 337 349 355 16.0 16.9 22.7 26.9 28.0
293 1/18/2001 7.3 7.5 7.6 7.8 7.8 512 554 586 622 703 82.1 85.3 88.4 93.0 93.7